sensor_id;sensor_type;location;lat;lon;timestamp;P1;durP1;ratioP1;P2;durP2;ratioP2
30380;SDS011;17169;50.966;11.038;2023-09-07T00:00:24;10.70;;;4.13;;
30380;SDS011;17169;50.966;11.038;2023-09-07T00:03:27;9.20;;;4.00;;
30380;SDS011;17169;50.966;11.038;2023-09-07T00:06:30;8.95;;;3.65;;
30380;SDS011;17169;50.966;11.038;2023-09-07T00:09:33;8.30;;;4.13;;
30380;SDS011;17169;50.966;11.038;2023-09-07T00:12:35;9.30;;;4.72;;
30380;SDS011;17169;50.966;11.038;2023-09-07T00:15:39;10.83;;;4.20;;
30380;SDS011;17169;50.966;11.038;2023-09-07T00:18:42;9.48;;;4.70;;
30380;SDS011;17169;50.966;11.038;2023-09-07T00:21:46;8.60;;;4.15;;
30380;SDS011;17169;50.966;11.038;2023-09-07T00:24:48;9.18;;;4.10;;
30380;SDS011;17169;50.966;11.038;2023-09-07T00:27:50;6.63;;;4.28;;
30380;SDS011;17169;50.966;11.038;2023-09-07T00:30:52;13.88;;;5.30;;
30380;SDS011;17169;50.966;11.038;2023-09-07T00:33:55;8.93;;;3.70;;
30380;SDS011;17169;50.966;11.038;2023-09-07T00:36:59;8.43;;;4.35;;
30380;SDS011;17169;50.966;11.038;2023-09-07T00:40:02;7.55;;;4.28;;
30380;SDS011;17169;50.966;11.038;2023-09-07T00:43:05;9.25;;;4.68;;
30380;SDS011;17169;50.966;11.038;2023-09-07T00:46:08;6.95;;;4.03;;
30380;SDS011;17169;50.966;11.038;2023-09-07T00:49:10;6.22;;;4.10;;
30380;SDS011;17169;50.966;11.038;2023-09-07T00:52:14;8.25;;;4.40;;
30380;SDS011;17169;50.966;11.038;2023-09-07T00:55:18;6.53;;;3.97;;
30380;SDS011;17169;50.966;11.038;2023-09-07T00:58:20;8.20;;;4.40;;
30380;SDS011;17169;50.966;11.038;2023-09-07T01:01:23;10.57;;;4.18;;
30380;SDS011;17169;50.966;11.038;2023-09-07T01:04:26;7.15;;;4.70;;
30380;SDS011;17169;50.966;11.038;2023-09-07T01:07:32;10.82;;;4.28;;
30380;SDS011;17169;50.966;11.038;2023-09-07T01:10:38;7.55;;;4.63;;
30380;SDS011;17169;50.966;11.038;2023-09-07T01:13:41;6.85;;;4.22;;
30380;SDS011;17169;50.966;11.038;2023-09-07T01:16:43;9.23;;;4.40;;
30380;SDS011;17169;50.966;11.038;2023-09-07T01:19:46;7.63;;;4.60;;
30380;SDS011;17169;50.966;11.038;2023-09-07T01:22:51;9.02;;;4.43;;
30380;SDS011;17169;50.966;11.038;2023-09-07T01:25:55;9.23;;;4.38;;
30380;SDS011;17169;50.966;11.038;2023-09-07T01:28:58;7.97;;;4.43;;
30380;SDS011;17169;50.966;11.038;2023-09-07T01:32:00;13.50;;;4.53;;
30380;SDS011;17169;50.966;11.038;2023-09-07T01:35:02;8.85;;;4.20;;
30380;SDS011;17169;50.966;11.038;2023-09-07T01:38:09;9.07;;;4.30;;
30380;SDS011;17169;50.966;11.038;2023-09-07T01:41:11;7.43;;;4.32;;
30380;SDS011;17169;50.966;11.038;2023-09-07T01:44:14;8.30;;;4.43;;
30380;SDS011;17169;50.966;11.038;2023-09-07T01:47:16;9.18;;;4.65;;
30380;SDS011;17169;50.966;11.038;2023-09-07T01:50:19;8.98;;;4.90;;
30380;SDS011;17169;50.966;11.038;2023-09-07T01:53:23;7.75;;;4.03;;
30380;SDS011;17169;50.966;11.038;2023-09-07T01:56:25;10.98;;;4.28;;
30380;SDS011;17169;50.966;11.038;2023-09-07T01:59:28;11.35;;;4.47;;
30380;SDS011;17169;50.966;11.038;2023-09-07T02:02:30;8.40;;;4.30;;
30380;SDS011;17169;50.966;11.038;2023-09-07T02:05:33;10.32;;;4.93;;
30380;SDS011;17169;50.966;11.038;2023-09-07T02:08:37;8.98;;;4.20;;
30380;SDS011;17169;50.966;11.038;2023-09-07T02:11:39;9.48;;;4.40;;
30380;SDS011;17169;50.966;11.038;2023-09-07T02:14:41;7.68;;;4.13;;
30380;SDS011;17169;50.966;11.038;2023-09-07T02:17:44;8.82;;;4.68;;
30380;SDS011;17169;50.966;11.038;2023-09-07T02:20:46;8.60;;;4.72;;
30380;SDS011;17169;50.966;11.038;2023-09-07T02:23:50;9.85;;;4.43;;
30380;SDS011;17169;50.966;11.038;2023-09-07T02:26:52;7.40;;;4.70;;
30380;SDS011;17169;50.966;11.038;2023-09-07T02:29:54;6.72;;;4.53;;
30380;SDS011;17169;50.966;11.038;2023-09-07T02:32:57;9.80;;;4.72;;
30380;SDS011;17169;50.966;11.038;2023-09-07T02:35:59;6.63;;;4.40;;
30380;SDS011;17169;50.966;11.038;2023-09-07T02:39:03;8.35;;;4.80;;
30380;SDS011;17169;50.966;11.038;2023-09-07T02:42:05;6.82;;;4.00;;
30380;SDS011;17169;50.966;11.038;2023-09-07T02:45:10;6.95;;;4.32;;
30380;SDS011;17169;50.966;11.038;2023-09-07T02:48:13;8.13;;;4.78;;
30380;SDS011;17169;50.966;11.038;2023-09-07T02:51:15;9.80;;;5.13;;
30380;SDS011;17169;50.966;11.038;2023-09-07T02:54:19;12.13;;;5.22;;
30380;SDS011;17169;50.966;11.038;2023-09-07T02:57:21;13.40;;;5.47;;
30380;SDS011;17169;50.966;11.038;2023-09-07T03:00:24;9.55;;;4.88;;
30380;SDS011;17169;50.966;11.038;2023-09-07T03:03:26;7.65;;;5.40;;
30380;SDS011;17169;50.966;11.038;2023-09-07T03:06:28;8.43;;;4.95;;
30380;SDS011;17169;50.966;11.038;2023-09-07T03:09:32;11.13;;;5.00;;
30380;SDS011;17169;50.966;11.038;2023-09-07T03:12:34;12.75;;;4.82;;
30380;SDS011;17169;50.966;11.038;2023-09-07T03:15:37;8.95;;;5.72;;
30380;SDS011;17169;50.966;11.038;2023-09-07T03:18:39;9.85;;;4.95;;
30380;SDS011;17169;50.966;11.038;2023-09-07T03:21:42;8.80;;;5.47;;
30380;SDS011;17169;50.966;11.038;2023-09-07T03:24:45;10.32;;;6.32;;
30380;SDS011;17169;50.966;11.038;2023-09-07T03:27:48;7.25;;;4.90;;
30380;SDS011;17169;50.966;11.038;2023-09-07T03:30:50;9.13;;;6.20;;
30380;SDS011;17169;50.966;11.038;2023-09-07T03:33:53;7.55;;;5.10;;
30380;SDS011;17169;50.966;11.038;2023-09-07T03:36:55;15.48;;;5.53;;
30380;SDS011;17169;50.966;11.038;2023-09-07T03:39:59;7.65;;;5.20;;
30380;SDS011;17169;50.966;11.038;2023-09-07T03:43:03;10.30;;;5.47;;
30380;SDS011;17169;50.966;11.038;2023-09-07T03:46:05;12.73;;;5.82;;
30380;SDS011;17169;50.966;11.038;2023-09-07T03:49:07;8.68;;;5.35;;
30380;SDS011;17169;50.966;11.038;2023-09-07T03:52:10;7.85;;;5.00;;
30380;SDS011;17169;50.966;11.038;2023-09-07T03:55:14;12.75;;;5.18;;
30380;SDS011;17169;50.966;11.038;2023-09-07T03:58:16;12.60;;;5.65;;
30380;SDS011;17169;50.966;11.038;2023-09-07T04:01:19;12.05;;;5.63;;
30380;SDS011;17169;50.966;11.038;2023-09-07T04:04:21;12.45;;;5.93;;
30380;SDS011;17169;50.966;11.038;2023-09-07T04:07:23;11.07;;;5.97;;
30380;SDS011;17169;50.966;11.038;2023-09-07T04:10:27;11.02;;;5.95;;
30380;SDS011;17169;50.966;11.038;2023-09-07T04:13:30;10.38;;;4.85;;
30380;SDS011;17169;50.966;11.038;2023-09-07T04:16:32;13.02;;;5.30;;
30380;SDS011;17169;50.966;11.038;2023-09-07T04:19:34;10.25;;;5.97;;
30380;SDS011;17169;50.966;11.038;2023-09-07T04:22:37;10.98;;;5.63;;
30380;SDS011;17169;50.966;11.038;2023-09-07T04:25:41;11.82;;;5.53;;
30380;SDS011;17169;50.966;11.038;2023-09-07T04:28:44;10.70;;;5.50;;
30380;SDS011;17169;50.966;11.038;2023-09-07T04:31:46;10.82;;;6.10;;
30380;SDS011;17169;50.966;11.038;2023-09-07T04:34:52;11.18;;;5.75;;
30380;SDS011;17169;50.966;11.038;2023-09-07T04:37:55;12.90;;;5.75;;
30380;SDS011;17169;50.966;11.038;2023-09-07T04:41:06;7.57;;;5.22;;
30380;SDS011;17169;50.966;11.038;2023-09-07T04:44:09;14.13;;;5.90;;
30380;SDS011;17169;50.966;11.038;2023-09-07T04:47:11;11.52;;;6.05;;
30380;SDS011;17169;50.966;11.038;2023-09-07T04:50:14;11.55;;;5.35;;
30380;SDS011;17169;50.966;11.038;2023-09-07T04:53:16;11.20;;;5.43;;
30380;SDS011;17169;50.966;11.038;2023-09-07T04:56:20;8.98;;;6.07;;
30380;SDS011;17169;50.966;11.038;2023-09-07T04:59:22;9.93;;;5.57;;
30380;SDS011;17169;50.966;11.038;2023-09-07T05:02:25;8.77;;;5.13;;
30380;SDS011;17169;50.966;11.038;2023-09-07T05:05:27;14.80;;;6.18;;
30380;SDS011;17169;50.966;11.038;2023-09-07T05:08:30;7.88;;;5.60;;
30380;SDS011;17169;50.966;11.038;2023-09-07T05:11:34;10.15;;;5.40;;
30380;SDS011;17169;50.966;11.038;2023-09-07T05:14:36;9.25;;;6.03;;
30380;SDS011;17169;50.966;11.038;2023-09-07T05:17:38;9.57;;;6.03;;
30380;SDS011;17169;50.966;11.038;2023-09-07T05:20:41;10.07;;;5.93;;
30380;SDS011;17169;50.966;11.038;2023-09-07T05:23:46;11.13;;;6.43;;
30380;SDS011;17169;50.966;11.038;2023-09-07T05:26:50;10.75;;;5.97;;
30380;SDS011;17169;50.966;11.038;2023-09-07T05:29:52;12.25;;;6.38;;
30380;SDS011;17169;50.966;11.038;2023-09-07T05:32:54;12.13;;;6.63;;
30380;SDS011;17169;50.966;11.038;2023-09-07T05:35:57;9.20;;;6.15;;
30380;SDS011;17169;50.966;11.038;2023-09-07T05:38:59;14.13;;;6.30;;
30380;SDS011;17169;50.966;11.038;2023-09-07T05:42:05;10.88;;;5.70;;
30380;SDS011;17169;50.966;11.038;2023-09-07T05:45:08;10.55;;;6.50;;
30380;SDS011;17169;50.966;11.038;2023-09-07T05:48:11;11.50;;;6.88;;
30380;SDS011;17169;50.966;11.038;2023-09-07T05:51:13;11.88;;;5.95;;
30380;SDS011;17169;50.966;11.038;2023-09-07T05:54:15;15.23;;;6.07;;
30380;SDS011;17169;50.966;11.038;2023-09-07T05:57:19;10.90;;;6.68;;
30380;SDS011;17169;50.966;11.038;2023-09-07T06:00:21;15.80;;;6.97;;
30380;SDS011;17169;50.966;11.038;2023-09-07T06:03:24;9.85;;;6.25;;
30380;SDS011;17169;50.966;11.038;2023-09-07T06:06:26;9.98;;;6.22;;
30380;SDS011;17169;50.966;11.038;2023-09-07T06:09:29;13.85;;;5.10;;
30380;SDS011;17169;50.966;11.038;2023-09-07T06:12:32;11.38;;;6.03;;
30380;SDS011;17169;50.966;11.038;2023-09-07T06:15:35;13.57;;;6.10;;
30380;SDS011;17169;50.966;11.038;2023-09-07T06:18:37;16.27;;;6.72;;
30380;SDS011;17169;50.966;11.038;2023-09-07T06:21:40;12.20;;;6.45;;
30380;SDS011;17169;50.966;11.038;2023-09-07T06:24:43;8.88;;;6.50;;
30380;SDS011;17169;50.966;11.038;2023-09-07T06:27:46;9.38;;;5.80;;
30380;SDS011;17169;50.966;11.038;2023-09-07T06:30:49;8.45;;;5.95;;
30380;SDS011;17169;50.966;11.038;2023-09-07T06:33:51;11.25;;;6.63;;
30380;SDS011;17169;50.966;11.038;2023-09-07T06:36:54;10.70;;;6.28;;
30380;SDS011;17169;50.966;11.038;2023-09-07T06:39:56;10.07;;;6.15;;
30380;SDS011;17169;50.966;11.038;2023-09-07T06:43:00;14.73;;;6.72;;
30380;SDS011;17169;50.966;11.038;2023-09-07T06:46:05;14.48;;;7.13;;
30380;SDS011;17169;50.966;11.038;2023-09-07T06:49:09;14.30;;;6.93;;
30380;SDS011;17169;50.966;11.038;2023-09-07T06:52:11;14.98;;;7.25;;
30380;SDS011;17169;50.966;11.038;2023-09-07T06:55:15;11.82;;;6.80;;
30380;SDS011;17169;50.966;11.038;2023-09-07T06:58:19;12.70;;;6.88;;
30380;SDS011;17169;50.966;11.038;2023-09-07T07:01:21;13.63;;;6.82;;
30380;SDS011;17169;50.966;11.038;2023-09-07T07:04:24;14.23;;;6.93;;
30380;SDS011;17169;50.966;11.038;2023-09-07T07:07:28;11.25;;;6.60;;
30380;SDS011;17169;50.966;11.038;2023-09-07T07:10:31;11.03;;;6.40;;
30380;SDS011;17169;50.966;11.038;2023-09-07T07:13:35;11.88;;;6.70;;
30380;SDS011;17169;50.966;11.038;2023-09-07T07:16:37;10.25;;;6.78;;
30380;SDS011;17169;50.966;11.038;2023-09-07T07:19:40;12.70;;;6.68;;
30380;SDS011;17169;50.966;11.038;2023-09-07T07:22:43;12.68;;;6.22;;
30380;SDS011;17169;50.966;11.038;2023-09-07T07:25:46;9.45;;;6.50;;
30380;SDS011;17169;50.966;11.038;2023-09-07T07:28:49;11.63;;;6.70;;
30380;SDS011;17169;50.966;11.038;2023-09-07T07:31:52;12.10;;;5.93;;
30380;SDS011;17169;50.966;11.038;2023-09-07T07:34:54;12.35;;;6.75;;
30380;SDS011;17169;50.966;11.038;2023-09-07T07:37:57;9.82;;;6.43;;
30380;SDS011;17169;50.966;11.038;2023-09-07T07:41:00;14.32;;;7.20;;
30380;SDS011;17169;50.966;11.038;2023-09-07T07:44:05;16.15;;;6.05;;
30380;SDS011;17169;50.966;11.038;2023-09-07T07:47:08;12.10;;;6.53;;
30380;SDS011;17169;50.966;11.038;2023-09-07T07:50:11;9.63;;;7.03;;
30380;SDS011;17169;50.966;11.038;2023-09-07T07:53:13;9.38;;;6.72;;
30380;SDS011;17169;50.966;11.038;2023-09-07T07:56:16;8.43;;;6.03;;
30380;SDS011;17169;50.966;11.038;2023-09-07T07:59:20;10.70;;;6.32;;
30380;SDS011;17169;50.966;11.038;2023-09-07T08:02:22;15.23;;;6.00;;
30380;SDS011;17169;50.966;11.038;2023-09-07T08:05:25;9.48;;;5.55;;
30380;SDS011;17169;50.966;11.038;2023-09-07T08:08:27;22.23;;;15.68;;
30380;SDS011;17169;50.966;11.038;2023-09-07T08:11:30;11.95;;;8.05;;
30380;SDS011;17169;50.966;11.038;2023-09-07T08:14:33;12.82;;;6.60;;
30380;SDS011;17169;50.966;11.038;2023-09-07T08:17:36;13.75;;;6.55;;
30380;SDS011;17169;50.966;11.038;2023-09-07T08:20:39;13.70;;;6.90;;
30380;SDS011;17169;50.966;11.038;2023-09-07T08:23:42;13.50;;;6.47;;
30380;SDS011;17169;50.966;11.038;2023-09-07T08:26:44;9.40;;;6.03;;
30380;SDS011;17169;50.966;11.038;2023-09-07T08:29:52;10.85;;;7.32;;
30380;SDS011;17169;50.966;11.038;2023-09-07T08:32:54;11.48;;;5.80;;
30380;SDS011;17169;50.966;11.038;2023-09-07T08:35:57;10.43;;;5.90;;
30380;SDS011;17169;50.966;11.038;2023-09-07T08:39:02;14.30;;;6.20;;
30380;SDS011;17169;50.966;11.038;2023-09-07T08:42:08;14.38;;;6.45;;
30380;SDS011;17169;50.966;11.038;2023-09-07T08:45:12;12.45;;;5.80;;
30380;SDS011;17169;50.966;11.038;2023-09-07T08:48:19;13.15;;;5.90;;
30380;SDS011;17169;50.966;11.038;2023-09-07T08:51:21;10.80;;;5.93;;
30380;SDS011;17169;50.966;11.038;2023-09-07T08:54:28;13.23;;;5.22;;
30380;SDS011;17169;50.966;11.038;2023-09-07T08:57:32;14.85;;;5.80;;
30380;SDS011;17169;50.966;11.038;2023-09-07T09:00:35;9.20;;;5.70;;
30380;SDS011;17169;50.966;11.038;2023-09-07T09:03:39;9.68;;;5.43;;
30380;SDS011;17169;50.966;11.038;2023-09-07T09:06:42;11.60;;;5.15;;
30380;SDS011;17169;50.966;11.038;2023-09-07T09:09:45;10.23;;;5.78;;
30380;SDS011;17169;50.966;11.038;2023-09-07T09:12:47;10.25;;;5.80;;
30380;SDS011;17169;50.966;11.038;2023-09-07T09:15:51;11.68;;;5.40;;
30380;SDS011;17169;50.966;11.038;2023-09-07T09:18:54;8.15;;;5.03;;
30380;SDS011;17169;50.966;11.038;2023-09-07T09:21:57;8.88;;;4.70;;
30380;SDS011;17169;50.966;11.038;2023-09-07T09:25:02;9.98;;;4.80;;
30380;SDS011;17169;50.966;11.038;2023-09-07T09:28:06;12.77;;;4.78;;
30380;SDS011;17169;50.966;11.038;2023-09-07T09:31:11;10.53;;;4.70;;
30380;SDS011;17169;50.966;11.038;2023-09-07T09:34:14;12.95;;;4.53;;
30380;SDS011;17169;50.966;11.038;2023-09-07T09:37:17;7.35;;;4.80;;
30380;SDS011;17169;50.966;11.038;2023-09-07T09:40:19;8.02;;;4.43;;
30380;SDS011;17169;50.966;11.038;2023-09-07T09:43:23;9.15;;;3.97;;
30380;SDS011;17169;50.966;11.038;2023-09-07T09:46:29;8.80;;;4.15;;
30380;SDS011;17169;50.966;11.038;2023-09-07T09:49:34;10.15;;;3.97;;
30380;SDS011;17169;50.966;11.038;2023-09-07T09:52:37;6.25;;;3.72;;
30380;SDS011;17169;50.966;11.038;2023-09-07T09:55:40;9.52;;;4.30;;
30380;SDS011;17169;50.966;11.038;2023-09-07T09:58:42;7.88;;;4.20;;
30380;SDS011;17169;50.966;11.038;2023-09-07T10:01:47;12.50;;;5.07;;
30380;SDS011;17169;50.966;11.038;2023-09-07T10:04:50;7.70;;;4.30;;
30380;SDS011;17169;50.966;11.038;2023-09-07T10:07:59;8.18;;;4.45;;
30380;SDS011;17169;50.966;11.038;2023-09-07T10:11:07;9.20;;;4.53;;
30380;SDS011;17169;50.966;11.038;2023-09-07T10:14:10;8.40;;;4.05;;
30380;SDS011;17169;50.966;11.038;2023-09-07T10:17:22;8.30;;;4.00;;
30380;SDS011;17169;50.966;11.038;2023-09-07T10:20:24;8.93;;;3.80;;
30380;SDS011;17169;50.966;11.038;2023-09-07T10:23:34;8.82;;;4.05;;
30380;SDS011;17169;50.966;11.038;2023-09-07T10:26:38;13.18;;;3.90;;
30380;SDS011;17169;50.966;11.038;2023-09-07T10:29:41;8.38;;;3.75;;
30380;SDS011;17169;50.966;11.038;2023-09-07T10:32:45;7.40;;;3.55;;
30380;SDS011;17169;50.966;11.038;2023-09-07T10:35:47;6.90;;;3.47;;
30380;SDS011;17169;50.966;11.038;2023-09-07T10:38:50;6.40;;;3.10;;
30380;SDS011;17169;50.966;11.038;2023-09-07T10:41:54;4.90;;;3.03;;
30380;SDS011;17169;50.966;11.038;2023-09-07T10:45:07;8.82;;;3.20;;
30380;SDS011;17169;50.966;11.038;2023-09-07T10:48:12;7.27;;;4.07;;
30380;SDS011;17169;50.966;11.038;2023-09-07T10:51:14;7.13;;;3.42;;
30380;SDS011;17169;50.966;11.038;2023-09-07T10:54:17;12.73;;;3.53;;
30380;SDS011;17169;50.966;11.038;2023-09-07T10:57:26;10.68;;;3.50;;
30380;SDS011;17169;50.966;11.038;2023-09-07T11:00:28;11.02;;;3.50;;
30380;SDS011;17169;50.966;11.038;2023-09-07T11:03:32;7.88;;;4.03;;
30380;SDS011;17169;50.966;11.038;2023-09-07T11:06:37;9.73;;;3.63;;
30380;SDS011;17169;50.966;11.038;2023-09-07T11:09:40;7.93;;;3.42;;
30380;SDS011;17169;50.966;11.038;2023-09-07T11:12:42;7.85;;;3.33;;
30380;SDS011;17169;50.966;11.038;2023-09-07T11:15:45;7.35;;;3.40;;
30380;SDS011;17169;50.966;11.038;2023-09-07T11:18:48;6.45;;;3.10;;
30380;SDS011;17169;50.966;11.038;2023-09-07T11:21:53;15.68;;;5.45;;
30380;SDS011;17169;50.966;11.038;2023-09-07T11:24:55;10.35;;;3.20;;
30380;SDS011;17169;50.966;11.038;2023-09-07T11:27:58;6.30;;;3.05;;
30380;SDS011;17169;50.966;11.038;2023-09-07T11:31:00;8.40;;;3.45;;
30380;SDS011;17169;50.966;11.038;2023-09-07T11:34:08;6.13;;;3.40;;
30380;SDS011;17169;50.966;11.038;2023-09-07T11:37:11;7.82;;;3.00;;
30380;SDS011;17169;50.966;11.038;2023-09-07T11:40:13;10.80;;;3.83;;
30380;SDS011;17169;50.966;11.038;2023-09-07T11:43:16;5.70;;;3.30;;
30380;SDS011;17169;50.966;11.038;2023-09-07T11:46:19;17.90;;;4.10;;
30380;SDS011;17169;50.966;11.038;2023-09-07T11:49:23;13.05;;;3.80;;
30380;SDS011;17169;50.966;11.038;2023-09-07T11:52:25;7.68;;;3.22;;
30380;SDS011;17169;50.966;11.038;2023-09-07T11:55:28;5.55;;;3.20;;
30380;SDS011;17169;50.966;11.038;2023-09-07T11:58:30;11.40;;;3.90;;
30380;SDS011;17169;50.966;11.038;2023-09-07T12:01:33;11.77;;;3.60;;
30380;SDS011;17169;50.966;11.038;2023-09-07T12:04:36;5.55;;;2.63;;
30380;SDS011;17169;50.966;11.038;2023-09-07T12:07:39;7.25;;;3.05;;
30380;SDS011;17169;50.966;11.038;2023-09-07T12:10:41;5.15;;;2.35;;
30380;SDS011;17169;50.966;11.038;2023-09-07T12:13:44;9.38;;;3.42;;
30380;SDS011;17169;50.966;11.038;2023-09-07T12:16:46;5.55;;;2.83;;
30380;SDS011;17169;50.966;11.038;2023-09-07T12:19:50;6.82;;;2.80;;
30380;SDS011;17169;50.966;11.038;2023-09-07T12:22:52;7.95;;;2.65;;
30380;SDS011;17169;50.966;11.038;2023-09-07T12:25:55;8.95;;;2.60;;
30380;SDS011;17169;50.966;11.038;2023-09-07T12:28:57;8.45;;;3.13;;
30380;SDS011;17169;50.966;11.038;2023-09-07T12:31:59;11.27;;;2.70;;
30380;SDS011;17169;50.966;11.038;2023-09-07T12:35:04;10.32;;;2.92;;
30380;SDS011;17169;50.966;11.038;2023-09-07T12:38:09;4.15;;;2.95;;
30380;SDS011;17169;50.966;11.038;2023-09-07T12:41:14;5.25;;;2.70;;
30380;SDS011;17169;50.966;11.038;2023-09-07T12:44:16;4.47;;;3.00;;
30380;SDS011;17169;50.966;11.038;2023-09-07T12:50:25;6.43;;;3.00;;
30380;SDS011;17169;50.966;11.038;2023-09-07T12:53:27;5.65;;;2.78;;
30380;SDS011;17169;50.966;11.038;2023-09-07T12:56:29;6.97;;;3.35;;
30380;SDS011;17169;50.966;11.038;2023-09-07T12:59:32;5.05;;;3.08;;
30380;SDS011;17169;50.966;11.038;2023-09-07T13:02:34;5.30;;;2.75;;
30380;SDS011;17169;50.966;11.038;2023-09-07T13:05:38;5.30;;;2.90;;
30380;SDS011;17169;50.966;11.038;2023-09-07T13:08:40;6.68;;;2.65;;
30380;SDS011;17169;50.966;11.038;2023-09-07T13:11:43;8.02;;;3.33;;
30380;SDS011;17169;50.966;11.038;2023-09-07T13:14:45;6.05;;;3.10;;
30380;SDS011;17169;50.966;11.038;2023-09-07T13:17:48;5.03;;;2.97;;
30380;SDS011;17169;50.966;11.038;2023-09-07T13:20:51;4.22;;;2.78;;
30380;SDS011;17169;50.966;11.038;2023-09-07T13:23:59;6.93;;;3.03;;
30380;SDS011;17169;50.966;11.038;2023-09-07T13:27:02;5.90;;;2.78;;
30380;SDS011;17169;50.966;11.038;2023-09-07T13:30:05;9.98;;;2.92;;
30380;SDS011;17169;50.966;11.038;2023-09-07T13:33:09;6.28;;;2.63;;
30380;SDS011;17169;50.966;11.038;2023-09-07T13:36:12;5.90;;;2.58;;
30380;SDS011;17169;50.966;11.038;2023-09-07T13:39:15;7.50;;;3.05;;
30380;SDS011;17169;50.966;11.038;2023-09-07T13:42:17;6.28;;;2.80;;
30380;SDS011;17169;50.966;11.038;2023-09-07T13:45:19;4.22;;;2.65;;
30380;SDS011;17169;50.966;11.038;2023-09-07T13:48:22;4.10;;;2.40;;
30380;SDS011;17169;50.966;11.038;2023-09-07T13:51:25;5.55;;;2.75;;
30380;SDS011;17169;50.966;11.038;2023-09-07T13:54:28;5.80;;;3.00;;
30380;SDS011;17169;50.966;11.038;2023-09-07T13:57:30;7.53;;;2.67;;
30380;SDS011;17169;50.966;11.038;2023-09-07T14:00:33;8.00;;;2.70;;
30380;SDS011;17169;50.966;11.038;2023-09-07T14:03:36;6.03;;;3.05;;
30380;SDS011;17169;50.966;11.038;2023-09-07T14:06:40;4.75;;;2.53;;
30380;SDS011;17169;50.966;11.038;2023-09-07T14:09:42;4.85;;;2.47;;
30380;SDS011;17169;50.966;11.038;2023-09-07T14:12:45;5.03;;;2.80;;
30380;SDS011;17169;50.966;11.038;2023-09-07T14:18:51;2.90;;;2.03;;
30380;SDS011;17169;50.966;11.038;2023-09-07T14:21:54;3.75;;;2.53;;
30380;SDS011;17169;50.966;11.038;2023-09-07T14:27:59;5.70;;;2.70;;
30380;SDS011;17169;50.966;11.038;2023-09-07T14:31:01;6.13;;;3.03;;
30380;SDS011;17169;50.966;11.038;2023-09-07T14:34:04;3.50;;;2.45;;
30380;SDS011;17169;50.966;11.038;2023-09-07T14:37:08;5.60;;;2.67;;
30380;SDS011;17169;50.966;11.038;2023-09-07T14:40:11;8.05;;;2.67;;
30380;SDS011;17169;50.966;11.038;2023-09-07T14:46:16;9.32;;;3.00;;
30380;SDS011;17169;50.966;11.038;2023-09-07T14:49:19;5.90;;;2.85;;
30380;SDS011;17169;50.966;11.038;2023-09-07T14:55:25;4.72;;;2.95;;
30380;SDS011;17169;50.966;11.038;2023-09-07T14:58:28;7.43;;;3.00;;
30380;SDS011;17169;50.966;11.038;2023-09-07T15:01:30;6.05;;;2.75;;
30380;SDS011;17169;50.966;11.038;2023-09-07T15:04:33;7.10;;;3.10;;
30380;SDS011;17169;50.966;11.038;2023-09-07T15:07:37;6.65;;;3.45;;
30380;SDS011;17169;50.966;11.038;2023-09-07T15:10:40;9.00;;;3.00;;
30380;SDS011;17169;50.966;11.038;2023-09-07T15:13:42;4.15;;;2.90;;
30380;SDS011;17169;50.966;11.038;2023-09-07T15:16:46;6.18;;;3.40;;
30380;SDS011;17169;50.966;11.038;2023-09-07T15:19:48;4.82;;;2.95;;
30380;SDS011;17169;50.966;11.038;2023-09-07T15:22:52;3.75;;;2.80;;
30380;SDS011;17169;50.966;11.038;2023-09-07T15:25:54;5.50;;;3.60;;
30380;SDS011;17169;50.966;11.038;2023-09-07T15:28:57;7.55;;;3.30;;
30380;SDS011;17169;50.966;11.038;2023-09-07T15:31:59;4.07;;;3.25;;
30380;SDS011;17169;50.966;11.038;2023-09-07T15:35:01;10.68;;;3.55;;
30380;SDS011;17169;50.966;11.038;2023-09-07T15:41:07;6.70;;;2.90;;
30380;SDS011;17169;50.966;11.038;2023-09-07T15:44:10;4.50;;;2.75;;
30380;SDS011;17169;50.966;11.038;2023-09-07T15:47:12;5.20;;;2.88;;
30380;SDS011;17169;50.966;11.038;2023-09-07T15:50:14;5.35;;;2.78;;
30380;SDS011;17169;50.966;11.038;2023-09-07T15:53:18;7.75;;;3.17;;
30380;SDS011;17169;50.966;11.038;2023-09-07T15:56:21;3.53;;;2.60;;
30380;SDS011;17169;50.966;11.038;2023-09-07T15:59:24;6.80;;;2.53;;
30380;SDS011;17169;50.966;11.038;2023-09-07T16:02:26;5.03;;;2.70;;
30380;SDS011;17169;50.966;11.038;2023-09-07T16:05:28;7.55;;;2.70;;
30380;SDS011;17169;50.966;11.038;2023-09-07T16:08:33;3.83;;;2.30;;
30380;SDS011;17169;50.966;11.038;2023-09-07T16:11:36;3.83;;;2.50;;
30380;SDS011;17169;50.966;11.038;2023-09-07T16:14:38;5.13;;;2.47;;
30380;SDS011;17169;50.966;11.038;2023-09-07T16:17:41;10.32;;;2.75;;
30380;SDS011;17169;50.966;11.038;2023-09-07T16:20:43;5.38;;;2.67;;
30380;SDS011;17169;50.966;11.038;2023-09-07T16:23:48;3.92;;;2.42;;
30380;SDS011;17169;50.966;11.038;2023-09-07T16:26:52;8.23;;;2.78;;
30380;SDS011;17169;50.966;11.038;2023-09-07T16:29:54;3.78;;;2.10;;
30380;SDS011;17169;50.966;11.038;2023-09-07T16:32:56;8.57;;;2.42;;
30380;SDS011;17169;50.966;11.038;2023-09-07T16:35:58;14.20;;;3.10;;
30380;SDS011;17169;50.966;11.038;2023-09-07T16:39:03;5.82;;;2.55;;
30380;SDS011;17169;50.966;11.038;2023-09-07T16:42:05;4.30;;;2.55;;
30380;SDS011;17169;50.966;11.038;2023-09-07T16:45:08;4.88;;;2.80;;
30380;SDS011;17169;50.966;11.038;2023-09-07T16:48:10;6.80;;;2.50;;
30380;SDS011;17169;50.966;11.038;2023-09-07T16:51:14;9.23;;;2.85;;
30380;SDS011;17169;50.966;11.038;2023-09-07T16:54:17;7.32;;;2.70;;
30380;SDS011;17169;50.966;11.038;2023-09-07T16:57:20;4.85;;;2.55;;
30380;SDS011;17169;50.966;11.038;2023-09-07T17:00:22;8.52;;;2.67;;
30380;SDS011;17169;50.966;11.038;2023-09-07T17:03:24;7.45;;;2.78;;
30380;SDS011;17169;50.966;11.038;2023-09-07T17:06:27;4.82;;;2.50;;
30380;SDS011;17169;50.966;11.038;2023-09-07T17:09:30;5.45;;;2.70;;
30380;SDS011;17169;50.966;11.038;2023-09-07T17:12:33;5.57;;;2.97;;
30380;SDS011;17169;50.966;11.038;2023-09-07T17:15:35;6.00;;;2.67;;
30380;SDS011;17169;50.966;11.038;2023-09-07T17:18:38;4.93;;;2.83;;
30380;SDS011;17169;50.966;11.038;2023-09-07T17:21:41;4.30;;;2.80;;
30380;SDS011;17169;50.966;11.038;2023-09-07T17:24:45;9.50;;;2.70;;
30380;SDS011;17169;50.966;11.038;2023-09-07T17:27:48;9.30;;;2.58;;
30380;SDS011;17169;50.966;11.038;2023-09-07T17:30:50;4.47;;;2.70;;
30380;SDS011;17169;50.966;11.038;2023-09-07T17:33:53;5.50;;;2.63;;
30380;SDS011;17169;50.966;11.038;2023-09-07T17:36:55;6.00;;;2.67;;
30380;SDS011;17169;50.966;11.038;2023-09-07T17:39:59;5.43;;;2.80;;
30380;SDS011;17169;50.966;11.038;2023-09-07T17:43:02;7.90;;;2.85;;
30380;SDS011;17169;50.966;11.038;2023-09-07T17:46:04;7.85;;;3.33;;
30380;SDS011;17169;50.966;11.038;2023-09-07T17:49:07;6.55;;;2.63;;
30380;SDS011;17169;50.966;11.038;2023-09-07T17:52:09;6.57;;;2.90;;
30380;SDS011;17169;50.966;11.038;2023-09-07T17:55:13;4.82;;;2.53;;
30380;SDS011;17169;50.966;11.038;2023-09-07T17:58:15;5.78;;;2.70;;
30380;SDS011;17169;50.966;11.038;2023-09-07T18:01:18;6.88;;;2.80;;
30380;SDS011;17169;50.966;11.038;2023-09-07T18:04:20;6.35;;;2.80;;
30380;SDS011;17169;50.966;11.038;2023-09-07T18:07:23;7.07;;;3.80;;
30380;SDS011;17169;50.966;11.038;2023-09-07T18:10:27;7.18;;;4.05;;
30380;SDS011;17169;50.966;11.038;2023-09-07T18:16:33;11.55;;;4.28;;
30380;SDS011;17169;50.966;11.038;2023-09-07T18:19:35;13.32;;;6.10;;
30380;SDS011;17169;50.966;11.038;2023-09-07T18:22:38;7.95;;;4.35;;